• Join FlightAware (Why Join?)
  • Login
  • US Flag 
11:02AM EDT


 

Airport Tracker/Info


-or-


 

Live Flight TrackerFlight Track Log ✈ TRS1804 ✈ 06-May-2012 ✈ KBWI - TNCA / AUA

Flight Track Log - Related Links

Times and Time Zones

All times are in EDT time to prevent confusion due to time zone crossing. See the TRS1804 flight status page for this flight to view local times or setup timezone preferences in your user account.

Time Position Orientation Groundspeed Altitude Reporting Facility
EDT Latitude Longitude Course Direction KTS MPH feet Rate Location/Type
08:17AM 39.1333 -76.6333 171° South 182 209 2,400  Level Potomac TRACON
08:22AM 38.8114 -76.5667 206° Southwest 322 371 14,000 2,280 Climbing Washington Center
08:23AM 38.7150 -76.6267 208° Southwest 357 411 15,700 2,280 Climbing Washington Center
08:24AM 38.6206 -76.6917 191° South 381 438 18,500 2,640 Climbing Washington Center
08:25AM 38.5078 -76.7192 174° South 398 458 20,900 2,280 Climbing Washington Center
08:26AM 38.3892 -76.7042 174° South 410 472 23,200 1,920 Climbing Washington Center
08:27AM 38.2600 -76.6864 174° South 438 504 24,800 1,380 Climbing Washington Center
08:28AM 38.1289 -76.6686 174° South 468 539 26,000 2,040 Climbing Washington Center
08:29AM 38.0017 -76.6511 174° South 473 544 29,000 2,640 Climbing Washington Center
08:30AM 37.8872 -76.6364 174° South 450 518 31,300 1,680 Climbing Washington Center
08:31AM 37.7683 -76.6217 173° South 433 498 32,400 1,080 Climbing Washington Center
08:32AM 37.6456 -76.6017 178° South 433 498 33,500 780 Climbing Washington Center
08:33AM 37.5183 -76.5947 192° South 451 519 34,000 240 Climbing Washington Center
08:34AM 37.3950 -76.6269 192° South 456 525 34,000  Level Washington Center
08:35AM 37.2694 -76.6592 193° South 461 531 34,000  Level Washington Center
08:36AM 37.1461 -76.6939 193° South 461 531 34,000  Level Washington Center
08:37AM 37.0228 -76.7286 192° South 461 531 34,000  Level Washington Center
08:38AM 36.8972 -76.7606 193° South 461 531 34,000  Level Washington Center
08:39AM 36.7758 -76.7950 192° South 461 531 34,000 300 Level Washington Center
08:40AM 36.6525 -76.8269 192° South 456 525 34,700 900 Climbing Washington Center
08:41AM 36.5250 -76.8611 193° South 456 525 35,900 1,320 Climbing Washington Center
08:42AM 36.3867 -76.9000 191° South 456 525 37,400 1,020 Climbing Washington Center
08:43AM 36.2656 -76.9289 193° South 456 525 38,000 300 Climbing Washington Center
08:44AM 36.1442 -76.9631 190° South 456 525 38,000  Level Washington Center
08:45AM 36.0186 -76.9917 193° South 450 518 38,000  Level Washington Center
08:46AM 35.8972 -77.0253 192° South 450 518 38,000  Level Washington Center
08:47AM 35.7758 -77.0564 191° South 450 518 38,000  Level Washington Center
08:48AM 35.6522 -77.0850 192° South 450 518 38,000  Level Washington Center
08:49AM 35.5331 -77.1158 192° South 445 512 38,000  Level Washington Center
08:50AM 35.4242 -77.1444 191° South 453 521 38,000  Level Washington Center
08:51AM 35.3006 -77.1750 192° South 453 521 38,000  Level Washington Center
08:52AM 35.1792 -77.2056 192° South 453 521 38,000  Level Washington Center
08:53AM 35.0556 -77.2386 191° South 453 521 38,000  Level Washington Center
08:54AM 34.9300 -77.2692 193° South 453 521 38,000  Level Washington Center
08:55AM 34.8000 -77.3044 193° South 452 520 38,000  Level Washington Center
08:56AM 34.6786 -77.3372 191° South 447 514 38,000  Level Washington Center
08:57AM 34.5592 -77.3650 192° South 447 514 38,000  Level Washington Center
08:58AM 34.4378 -77.3950 192° South 447 514 38,000  Level Washington Center
09:00AM 34.1928 -77.4553 191° South 446 513 38,000  Level Jacksonville Center
09:01AM 34.0731 -77.4828 190° South 446 513 38,000  Level Jacksonville Center
09:02AM 33.9489 -77.5103 193° South 451 519 38,000  Level Jacksonville Center
09:03AM 33.8417 -77.5394 191° South 443 510 38,000  Level Jacksonville Center
09:04AM 33.7239 -77.5667 193° South 443 510 38,000  Level Jacksonville Center
09:05AM 33.5919 -77.6019 192° South 449 517 38,000  Level Jacksonville Center
09:06AM 33.4722 -77.6317 192° South 449 517 38,000  Level Jacksonville Center
09:07AM 33.3669 -77.6578 191° South 443 510 38,000  Level Jacksonville Center
09:08AM 33.2469 -77.6847 192° South 443 510 38,000  Level Jacksonville Center
09:09AM 33.1272 -77.7164 191° South 443 510 38,000  Level Jacksonville Center
09:10AM 33.0094 -77.7431 192° South 448 516 38,000  Level Jacksonville Center
09:13AM 32.6497 -77.8300 192° South 443 510 38,000  Level Jacksonville Center
09:19AM 31.9406 -78.0014 191° South 443 510 38,000  Level Jacksonville Center
09:21AM 31.7025 -78.0556 191° South 448 516 38,000  Level Jacksonville Center
09:24AM 31.3508 -78.1369 184° South 443 510 38,000  Level Jacksonville Center
09:35AM 30.0339 -78.2408 154° Southeast 436 502 38,000  Level Miami Center
09:38AM 29.7269 -78.0675 155° Southeast 437 503 38,000 60 Level Miami Center
09:46AM 28.8436 -77.5883 156° South 438 504 39,000 60 Climbing Miami Center
09:47AM 28.7311 -77.5308 155° Southeast 443 510 39,000  Level Miami Center
09:48AM 28.6186 -77.4711 154° Southeast 442 509 39,000  Level Miami Center
09:49AM 28.5144 -77.4139 156° South 429 494 39,000  Level Miami Center
09:50AM 28.3958 -77.3542 153° Southeast 438 504 39,000  Level Miami Center
09:51AM 28.2917 -77.2947 156° South 438 504 39,000  Level Miami Center
09:52AM 28.1769 -77.2378 152° Southeast 444 511 39,000  Level Miami Center
09:53AM 28.0539 -77.1644 160° South 438 504 39,000  Level Miami Center
09:54AM 27.9411 -77.1172 152° Southeast 443 510 39,000  Level Miami Center
09:55AM 27.8306 -77.0511 153° Southeast 443 510 39,000  Level Miami Center
09:56AM 27.7158 -76.9853 154° Southeast 443 510 39,000  Level Miami Center
09:57AM 27.6031 -76.9242 154° Southeast 443 510 39,000  Level Miami Center
09:58AM 27.4883 -76.8608 156° South 448 516 39,000  Level Miami Center
09:59AM 27.3756 -76.8047 155° Southeast 448 516 39,000  Level Miami Center
10:00AM 27.2583 -76.7442 154° Southeast 460 529 39,000  Level Miami Center
10:01AM 27.1392 -76.6789 155° Southeast 460 529 39,000  Level Miami Center
10:02AM 27.0264 -76.6208 153° Southeast 460 529 39,000  Level Miami Center
10:03AM 26.9072 -76.5533 155° Southeast 465 535 39,000  Level Miami Center
10:04AM 26.7900 -76.4933 155° Southeast 465 535 39,000  Level Miami Center
10:05AM 26.6750 -76.4331 156° South 459 528 39,000  Level Miami Center
10:06AM 26.5619 -76.3778 154° Southeast 459 528 39,000  Level Miami Center
10:07AM 26.4428 -76.3133 157° South 464 534 39,000  Level Miami Center
10:08AM 26.3422 -76.2650 155° Southeast 458 527 39,000  Level Miami Center
10:09AM 26.2208 -76.2008 155° Southeast 463 533 39,000  Level Miami Center
10:10AM 26.1014 -76.1389 155° Southeast 463 533 39,000  Level Miami Center
10:11AM 25.9861 -76.0797 155° Southeast 463 533 39,000  Level Miami Center
10:12AM 25.8708 -76.0203 155° Southeast 463 533 39,000  Level Miami Center
10:13AM 25.7472 -75.9567 156° South 468 539 39,000  Level Miami Center
10:14AM 25.6256 -75.8953 154° Southeast 468 539 39,000  Level Miami Center
10:15AM 25.5103 -75.8342 156° South 467 537 39,000  Level Miami Center
10:16AM 25.3822 -75.7708 155° Southeast 476 548 39,000  Level Miami Center
10:17AM 25.2689 -75.7119 156° South 476 548 39,000  Level Miami Center
10:18AM 25.1369 -75.6467 156° South 464 534 39,000  Level Miami Center
10:19AM 25.0192 -75.5883 153° Southeast 464 534 39,000  Level Miami Center
10:20AM 24.8975 -75.5208 156° South 464 534 39,000  Level Miami Center
10:21AM 24.7758 -75.4625 156° South 470 541 39,000  Level Miami Center
10:22AM 24.6686 -75.4089 155° Southeast 470 541 39,000  Level Miami Center
10:23AM 24.5469 -75.3464 156° South 470 541 39,000  Level Miami Center
10:24AM 24.4250 -75.2864 155° Southeast 475 547 39,000  Level Miami Center
10:25AM 24.3053 -75.2261 156° South 475 547 39,000  Level Miami Center
10:26AM 24.1811 -75.1642 155° Southeast 481 554 39,000  Level Miami Center
10:27AM 24.0572 -75.1019 157° South 481 554 39,000  Level Miami Center
10:28AM 23.9353 -75.0447 155° Southeast 481 554 39,000  Level Miami Center
10:29AM 23.8133 -74.9828 156° South 481 554 39,000  Level Miami Center
10:30AM 23.6892 -74.9233 155° Southeast 481 554 39,000  Level Miami Center
10:31AM 23.5672 -74.8619 155° Southeast 481 554 39,000  Level Miami Center
10:32AM 23.4472 -74.8003 157° South 481 554 39,000  Level Miami Center
10:33AM 23.3233 -74.7436 155° Southeast 481 554 39,000  Level Miami Center
10:34AM 23.2011 -74.6822 156° South 481 554 39,000  Level Miami Center
10:35AM 23.0792 -74.6233 156° South 481 554 39,000  Level Miami Center
10:36AM 22.9592 -74.5644 156° South 475 547 39,000  Level Miami Center
10:37AM 22.8372 -74.5058 155° Southeast 475 547 39,000  Level Miami Center
10:38AM 22.7150 -74.4450 156° South 480 552 39,000  Level Miami Center
10:39AM 22.5867 -74.3822 156° South 475 547 39,000  Level Miami Center
10:40AM 22.4686 -74.3258 155° Southeast 469 540 39,000  Level Miami Center
10:41AM 22.3508 -74.2675 157° South 469 540 39,000  Level Miami Center
10:42AM 22.2308 -74.2117 156° South 469 540 39,000  Level Miami Center
10:43AM 22.1128 -74.1558 156° South 464 534 39,000  Level Miami Center
10:44AM 21.9947 -74.1000 156° South 464 534 39,000  Level Miami Center
10:45AM 21.8747 -74.0419 155° Southeast 464 534 39,000  Level Miami Center
10:46AM 21.7714 -73.9906 155° Southeast 464 534 39,000  Level Miami Center
10:47AM 21.6514 -73.9306 155° Southeast 464 534 39,000  Level Miami Center
10:48AM 21.5353 -73.8731 156° South 459 528 39,000  Level Miami Center
10:49AM 21.4153 -73.8156 156° South 459 528 39,000  Level Miami Center
10:50AM 21.2994 -73.7603 156° South 465 535 39,000  Level Miami Center
10:51AM 21.1792 -73.7028 157° South 460 529 39,000  Level Miami Center
10:52AM 21.0653 -73.6500 157° South 460 529 39,000  Level Miami Center
10:53AM 20.9411 -73.5928 156° South 465 535 39,000  Level Miami Center
10:54AM 20.8147 -73.5336 156° South 471 542 39,000  Level Miami Center
10:55AM 20.6964 -73.4767 156° South 476 548 39,000  Level Miami Center
10:56AM 20.5722 -73.4178 157° South 481 554 39,000  Level Miami Center
10:57AM 20.4497 -73.3611 156° South 481 554 39,000  Level Miami Center
10:58AM 20.3256 -73.3022 157° South 481 554 39,000  Level Miami Center
10:59AM 20.2031 -73.2458 154° Southeast 481 554 39,000  Level Miami Center
11:00AM 20.0808 -73.1828 151° Southeast 481 554 39,000  Level Miami Center
11:07AM 19.2997 -72.7280 152° Southeast  Level FlightAware Approximate
11:08AM 19.1922 -72.6671 152° Southeast  Level FlightAware Approximate
11:09AM 19.0847 -72.6063 152° Southeast  Level FlightAware Approximate
11:10AM 18.9772 -72.5455 152° Southeast  Level FlightAware Approximate
11:11AM 18.8697 -72.4848 152° Southeast  Level FlightAware Approximate
11:12AM 18.7621 -72.4242 152° Southeast  Level FlightAware Approximate
11:13AM 18.6546 -72.3637 152° Southeast  Level FlightAware Approximate
11:14AM 18.5470 -72.3032 152° Southeast  Level FlightAware Approximate
11:15AM 18.4394 -72.2429 152° Southeast  Level FlightAware Approximate
11:16AM 18.3318 -72.1826 152° Southeast  Level FlightAware Approximate
11:17AM 18.2241 -72.1223 152° Southeast  Level FlightAware Approximate
11:18AM 18.1165 -72.0622 152° Southeast  Level FlightAware Approximate
11:19AM 18.0088 -72.0021 152° Southeast  Level FlightAware Approximate
11:20AM 17.9011 -71.9421 152° Southeast  Level FlightAware Approximate
11:21AM 17.7934 -71.8822 152° Southeast  Level FlightAware Approximate
11:22AM 17.6856 -71.8223 152° Southeast  Level FlightAware Approximate
11:23AM 17.5779 -71.7625 151° Southeast  Level FlightAware Approximate
11:24AM 17.4713 -71.7006 158° South  Level FlightAware Approximate
11:25AM 17.3582 -71.6530 158° South  Level FlightAware Approximate
11:26AM 17.2450 -71.6054 158° South  Level FlightAware Approximate
11:27AM 17.1319 -71.5580 158° South  Level FlightAware Approximate
11:28AM 17.0187 -71.5105 158° South  Level FlightAware Approximate
11:29AM 16.9056 -71.4632 158° South  Level FlightAware Approximate
11:30AM 16.7924 -71.4159 158° South  Level FlightAware Approximate
11:31AM 16.6792 -71.3686 158° South  Level FlightAware Approximate
11:32AM 16.5660 -71.3214 158° South  Level FlightAware Approximate
11:33AM 16.4528 -71.2743 158° South  Level FlightAware Approximate
11:34AM 16.3396 -71.2272 159° South  Level FlightAware Approximate
11:35AM 16.2257 -71.1821 159° South  Level FlightAware Approximate
11:36AM 16.1118 -71.1369 159° South  Level FlightAware Approximate
11:37AM 15.9978 -71.0919 162° South  Level FlightAware Approximate
11:38AM 15.8819 -71.0528 162° South  Level FlightAware Approximate
11:39AM 15.7659 -71.0138 162° South  Level FlightAware Approximate
11:40AM 15.6499 -70.9749 162° South  Level FlightAware Approximate
11:41AM 15.5339 -70.9360 162° South  Level FlightAware Approximate
11:42AM 15.4179 -70.8971 162° South  Level FlightAware Approximate
11:43AM 15.3020 -70.8583 162° South  Level FlightAware Approximate
11:44AM 15.1859 -70.8195 162° South  Level FlightAware Approximate
11:45AM 15.0699 -70.7807 162° South  Level FlightAware Approximate
11:46AM 14.9539 -70.7421 162° South  Level FlightAware Approximate
11:47AM 14.8379 -70.7034 162° South  Level FlightAware Approximate
11:48AM 14.7219 -70.6648 162° South  Level FlightAware Approximate
11:49AM 14.6058 -70.6262 162° South  Level FlightAware Approximate
11:50AM 14.4898 -70.5877 162° South  Level FlightAware Approximate
11:51AM 14.3737 -70.5492 162° South  Level FlightAware Approximate
11:52AM 14.2577 -70.5107 162° South  Level FlightAware Approximate
11:53AM 14.1416 -70.4723 162° South  Level FlightAware Approximate
11:54AM 14.0255 -70.4340 162° South  Level FlightAware Approximate
11:55AM 13.9094 -70.3956 162° South  Level FlightAware Approximate
11:56AM 13.7934 -70.3574 162° South  Level FlightAware Approximate
11:57AM 13.6773 -70.3191 162° South  Level FlightAware Approximate
11:58AM 13.5612 -70.2809 162° South  Level FlightAware Approximate
11:59AM 13.4642 -70.2490 162° South  Level FlightAware Approximate
12:00PM 13.3671 -70.2171 162° South  Level FlightAware Approximate
12:01PM 13.2701 -70.1852 162° South  Level FlightAware Approximate
12:02PM 13.1730 -70.1534 162° South  Level FlightAware Approximate
12:03PM 13.0760 -70.1216 162° South  Level FlightAware Approximate
12:04PM 12.9789 -70.0898 162° South  Level FlightAware Approximate
12:05PM 12.8819 -70.0580 162° South  Level FlightAware Approximate
12:06PM 12.7848 -70.0263 162° South  Level FlightAware Approximate
12:07PM 12.6878 -69.9946 142° Southeast  Level FlightAware Approximate
12:08PM 12.6123 -69.9333 180° South  Level FlightAware Approximate
12:09PM 12.5105 -69.9333 264° West  Level FlightAware Approximate
12:10PM 12.4990 -70.0370 353° North  Level Estimated
12:11PM 15.0085 -70.3580 171° South  Level FlightAware Approximate
12:12PM 14.9080 -70.3408 171° South  Level FlightAware Approximate
12:13PM 14.8075 -70.3236 171° South  Level FlightAware Approximate
12:14PM 14.7070 -70.3065 171° South  Level FlightAware Approximate
12:15PM 14.6065 -70.2893 171° South  Level FlightAware Approximate
12:16PM 14.4922 -70.2698 171° South  Level FlightAware Approximate
12:17PM 14.3779 -70.2504 171° South  Level FlightAware Approximate
12:18PM 14.2636 -70.2309 171° South  Level FlightAware Approximate
12:19PM 14.1493 -70.2115 171° South  Level FlightAware Approximate
12:20PM 14.0350 -70.1921 171° South  Level FlightAware Approximate
12:21PM 13.9207 -70.1727 171° South  Level FlightAware Approximate
12:22PM 13.8064 -70.1534 171° South  Level FlightAware Approximate